Kang Sheng — VRXL3 — position and weather

sailwx.info

Track history (hours):
 
Tides and Currents Weather Stations Pressure Air Temp Water Temp Dewpoint Dewpoint Depression Visibility Wind Speed Wind Dir Waves Ship Positions

Kang Sheng

Last reported at 2015-Apr-23 17:34 UTC. Time now 2015-May-07 04:36 UTC.
Position N 02°05' E 102°06'.
Warning: this ship's position is 13 days out of date.

Length 190 m; draft 11 m.

Type: Cargo ship. MMSI: 477977000.

Date/timePositionNaut miles runAvg speedWind from/ knotsBaromVisibWave heightAir tempDewpointWater temp
2015-Apr-23 17:34N 02°05' E 102°06'1311.4
2015-Apr-23 16:23N 01°57' E 102°17'911.0
2015-Apr-23 15:33N 01°53' E 102°25'1111.1
2015-Apr-23 14:33N 01°48' E 102°35'1211.4
2015-Apr-23 13:30N 01°44' E 102°46'7111.7
2015-Apr-23 07:28N 01°11' E 103°49'1111.8
2015-Apr-23 06:34N 01°16' E 103°58'1 0.8
2015-Apr-23 05:26N 01°17' E 103°58'0 0.1
2015-Apr-23 04:20N 01°17' E 103°59'0 0.1
2015-Apr-23 03:29N 01°17' E 103°59'0 0.1
2015-Apr-23 02:26N 01°17' E 103°59'0 0.0
2015-Apr-23 01:26N 01°17' E 103°59'0 0.0
2015-Apr-23 00:26N 01°17' E 103°59'0 0.0
2015-Apr-22 23:14N 01°17' E 103°59'0 0.0
2015-Apr-22 21:26N 01°17' E 103°59'0 0.0
2015-Apr-22 20:26N 01°17' E 103°59'0 0.0
2015-Apr-22 19:26N 01°17' E 103°59'0 0.1
2015-Apr-22 18:26N 01°17' E 103°59'0 0.1
2015-Apr-22 17:26N 01°17' E 103°58'0 0.5
2015-Apr-22 16:33N 01°17' E 103°58'1 1.0
2015-Apr-22 15:32N 01°16' E 103°58'5 5.3
2015-Apr-22 14:33N 01°16' E 104°04'8 6.6
2015-Apr-22 13:20N 01°18' E 104°12'  
2015-Apr-17 00:33N 23°31' E 117°53'1110.8
2015-Apr-16 23:33N 23°39' E 118°01'1010.2
2015-Apr-16 22:32N 23°46' E 118°10'1311.0
2015-Apr-16 21:24N 23°53' E 118°21'911.1
2015-Apr-16 20:33N 23°59' E 118°29'1311.3
2015-Apr-16 19:24N 24°08' E 118°40'1011.7
2015-Apr-16 18:33N 24°13' E 118°49'1211.6
2015-Apr-16 17:33N 24°20' E 118°59'1111.3
2015-Apr-16 16:33N 24°27' E 119°09'1111.3
2015-Apr-16 15:33N 24°33' E 119°19'1111.2
2015-Apr-16 14:32N 24°40' E 119°29'1411.3
2015-Apr-16 13:18N 24°50' E 119°40'911.5
2015-Apr-16 12:31N 24°57' E 119°47'3611.8
2015-Apr-16 09:28N 25°23' E 120°14'1212.1
2015-Apr-16 08:29N 25°32' E 120°23'25411.0
2015-Apr-15 09:28N 29°10' E 122°48'1010.9
2015-Apr-15 08:33N 29°19' E 122°54'1310.8
2015-Apr-15 07:21N 29°30' E 123°02'6811.3
2015-Apr-15 01:22N 30°36' E 123°19'1910.4
2015-Apr-14 23:34N 30°51' E 123°07'1211.1
2015-Apr-14 22:31N 30°59' E 122°57'1111.4
2015-Apr-14 21:33N 31°05' E 122°46'1111.4
2015-Apr-14 20:33N 31°05' E 122°33'9 8.9
2015-Apr-14 19:33N 31°06' E 122°22'1110.9
2015-Apr-14 18:33N 31°11' E 122°11'1313.5
2015-Apr-14 17:33N 31°15' E 121°56'1313.2
2015-Apr-14 16:34N 31°20' E 121°42'1211.8
2015-Apr-14 15:33N 31°26' E 121°30'1111.1
2015-Apr-14 14:33N 31°33' E 121°20'1111.4
2015-Apr-14 13:33N 31°41' E 121°10'1111.5
2015-Apr-14 12:33N 31°47' E 120°58'1312.6
2015-Apr-14 11:33N 31°58' E 120°51'3 2.9
2015-Apr-14 10:27N 32°00' E 120°49'0 0.0
2015-Apr-14 08:22N 32°00' E 120°49'0 0.0
2015-Apr-14 07:27N 32°00' E 120°49'0 0.0
2015-Apr-14 06:33N 32°00' E 120°49'0 0.0
2015-Apr-14 02:33N 32°00' E 120°49'0 0.0
2015-Apr-14 01:21N 32°00' E 120°49'0 0.0
2015-Apr-14 00:33N 32°00' E 120°49'0 0.0
2015-Apr-13 23:27N 32°00' E 120°49'0 0.0
2015-Apr-13 22:27N 32°00' E 120°49'0 0.0
2015-Apr-13 21:09N 32°00' E 120°49'0 0.0
2015-Apr-13 20:33N 32°00' E 120°49'0 0.0
2015-Apr-13 19:15N 32°00' E 120°49'0 0.0
2015-Apr-13 18:33N 32°00' E 120°49'  
Track history (hours):
 
Tides and Currents Weather Stations Pressure Air Temp Water Temp Dewpoint Dewpoint Depression Visibility Wind Speed Wind Dir Waves Ship Positions

Kang Sheng

Last reported at 2015-Apr-23 17:34 UTC. Time now 2015-May-07 04:36 UTC.
Position N 02°05' E 102°06'.
Warning: this ship's position is 13 days out of date.

Length 190 m; draft 11 m.

Type: Cargo ship. MMSI: 477977000.

Date/timePositionNaut miles runAvg speedWind from/ knotsBaromVisibWave heightAir tempDewpointWater temp
2015-Apr-23 17:34N 02°05' E 102°06'1311.4
2015-Apr-23 16:23N 01°57' E 102°17'911.0
2015-Apr-23 15:33N 01°53' E 102°25'1111.1
2015-Apr-23 14:33N 01°48' E 102°35'1211.4
2015-Apr-23 13:30N 01°44' E 102°46'7111.7
2015-Apr-23 07:28N 01°11' E 103°49'1111.8
2015-Apr-23 06:34N 01°16' E 103°58'1 0.8
2015-Apr-23 05:26N 01°17' E 103°58'0 0.1
2015-Apr-23 04:20N 01°17' E 103°59'0 0.1
2015-Apr-23 03:29N 01°17' E 103°59'0 0.1
2015-Apr-23 02:26N 01°17' E 103°59'0 0.0
2015-Apr-23 01:26N 01°17' E 103°59'0 0.0
2015-Apr-23 00:26N 01°17' E 103°59'0 0.0
2015-Apr-22 23:14N 01°17' E 103°59'0 0.0
2015-Apr-22 21:26N 01°17' E 103°59'0 0.0
2015-Apr-22 20:26N 01°17' E 103°59'0 0.0
2015-Apr-22 19:26N 01°17' E 103°59'0 0.1
2015-Apr-22 18:26N 01°17' E 103°59'0 0.1
2015-Apr-22 17:26N 01°17' E 103°58'0 0.5
2015-Apr-22 16:33N 01°17' E 103°58'1 1.0
2015-Apr-22 15:32N 01°16' E 103°58'5 5.3
2015-Apr-22 14:33N 01°16' E 104°04'8 6.6
2015-Apr-22 13:20N 01°18' E 104°12'  
2015-Apr-17 00:33N 23°31' E 117°53'1110.8
2015-Apr-16 23:33N 23°39' E 118°01'1010.2
2015-Apr-16 22:32N 23°46' E 118°10'1311.0
2015-Apr-16 21:24N 23°53' E 118°21'911.1
2015-Apr-16 20:33N 23°59' E 118°29'1311.3
2015-Apr-16 19:24N 24°08' E 118°40'1011.7
2015-Apr-16 18:33N 24°13' E 118°49'1211.6
2015-Apr-16 17:33N 24°20' E 118°59'1111.3
2015-Apr-16 16:33N 24°27' E 119°09'1111.3
2015-Apr-16 15:33N 24°33' E 119°19'1111.2
2015-Apr-16 14:32N 24°40' E 119°29'1411.3
2015-Apr-16 13:18N 24°50' E 119°40'911.5
2015-Apr-16 12:31N 24°57' E 119°47'3611.8
2015-Apr-16 09:28N 25°23' E 120°14'1212.1
2015-Apr-16 08:29N 25°32' E 120°23'25411.0
2015-Apr-15 09:28N 29°10' E 122°48'1010.9
2015-Apr-15 08:33N 29°19' E 122°54'1310.8
2015-Apr-15 07:21N 29°30' E 123°02'6811.3
2015-Apr-15 01:22N 30°36' E 123°19'1910.4
2015-Apr-14 23:34N 30°51' E 123°07'1211.1
2015-Apr-14 22:31N 30°59' E 122°57'1111.4
2015-Apr-14 21:33N 31°05' E 122°46'1111.4
2015-Apr-14 20:33N 31°05' E 122°33'9 8.9
2015-Apr-14 19:33N 31°06' E 122°22'1110.9
2015-Apr-14 18:33N 31°11' E 122°11'1313.5
2015-Apr-14 17:33N 31°15' E 121°56'1313.2
2015-Apr-14 16:34N 31°20' E 121°42'1211.8
2015-Apr-14 15:33N 31°26' E 121°30'1111.1
2015-Apr-14 14:33N 31°33' E 121°20'1111.4
2015-Apr-14 13:33N 31°41' E 121°10'1111.5
2015-Apr-14 12:33N 31°47' E 120°58'1312.6
2015-Apr-14 11:33N 31°58' E 120°51'3 2.9
2015-Apr-14 10:27N 32°00' E 120°49'0 0.0
2015-Apr-14 08:22N 32°00' E 120°49'0 0.0
2015-Apr-14 07:27N 32°00' E 120°49'0 0.0
2015-Apr-14 06:33N 32°00' E 120°49'0 0.0
2015-Apr-14 02:33N 32°00' E 120°49'0 0.0
2015-Apr-14 01:21N 32°00' E 120°49'0 0.0
2015-Apr-14 00:33N 32°00' E 120°49'0 0.0
2015-Apr-13 23:27N 32°00' E 120°49'0 0.0
2015-Apr-13 22:27N 32°00' E 120°49'0 0.0
2015-Apr-13 21:09N 32°00' E 120°49'0 0.0
2015-Apr-13 20:33N 32°00' E 120°49'0 0.0
2015-Apr-13 19:15N 32°00' E 120°49'0 0.0
2015-Apr-13 18:33N 32°00' E 120°49'  

Dump ship's entire track history